sensor_id;sensor_type;location;lat;lon;timestamp;temperature;humidity
9699;DHT22;10089;47.876;8.346;2023-07-20T00:00:49;17.30;1.00
9699;DHT22;10089;47.876;8.346;2023-07-20T00:03:19;17.30;1.00
9699;DHT22;10089;47.876;8.346;2023-07-20T00:05:48;17.20;1.00
9699;DHT22;10089;47.876;8.346;2023-07-20T00:08:14;17.20;1.00
9699;DHT22;10089;47.876;8.346;2023-07-20T00:10:41;17.10;1.00
9699;DHT22;10089;47.876;8.346;2023-07-20T00:13:06;17.10;1.00
9699;DHT22;10089;47.876;8.346;2023-07-20T00:15:32;17.10;1.00
9699;DHT22;10089;47.876;8.346;2023-07-20T00:17:58;17.10;32.20
9699;DHT22;10089;47.876;8.346;2023-07-20T00:20:24;17.10;58.40
9699;DHT22;10089;47.876;8.346;2023-07-20T00:22:53;17.10;8.90
9699;DHT22;10089;47.876;8.346;2023-07-20T00:25:20;17.00;99.90
9699;DHT22;10089;47.876;8.346;2023-07-20T00:27:45;17.00;99.90
9699;DHT22;10089;47.876;8.346;2023-07-20T00:30:11;16.90;99.90
9699;DHT22;10089;47.876;8.346;2023-07-20T00:32:37;16.90;99.90
9699;DHT22;10089;47.876;8.346;2023-07-20T00:35:03;16.90;99.90
9699;DHT22;10089;47.876;8.346;2023-07-20T00:37:29;16.90;99.90
9699;DHT22;10089;47.876;8.346;2023-07-20T00:39:55;16.90;99.90
9699;DHT22;10089;47.876;8.346;2023-07-20T00:42:20;16.90;99.90
9699;DHT22;10089;47.876;8.346;2023-07-20T00:44:46;16.80;99.90
9699;DHT22;10089;47.876;8.346;2023-07-20T00:47:11;16.80;99.90
9699;DHT22;10089;47.876;8.346;2023-07-20T00:49:38;16.80;1.00
9699;DHT22;10089;47.876;8.346;2023-07-20T00:52:06;16.70;1.00
9699;DHT22;10089;47.876;8.346;2023-07-20T00:54:32;16.70;1.00
9699;DHT22;10089;47.876;8.346;2023-07-20T00:56:58;16.50;1.00
9699;DHT22;10089;47.876;8.346;2023-07-20T00:59:26;16.50;1.00
9699;DHT22;10089;47.876;8.346;2023-07-20T01:01:52;16.50;1.00
9699;DHT22;10089;47.876;8.346;2023-07-20T01:04:17;16.50;1.00
9699;DHT22;10089;47.876;8.346;2023-07-20T01:06:56;16.40;1.00
9699;DHT22;10089;47.876;8.346;2023-07-20T01:09:45;16.40;1.00
9699;DHT22;10089;47.876;8.346;2023-07-20T01:12:18;16.40;1.00
9699;DHT22;10089;47.876;8.346;2023-07-20T01:14:45;16.40;1.00
9699;DHT22;10089;47.876;8.346;2023-07-20T01:17:10;16.30;1.00
9699;DHT22;10089;47.876;8.346;2023-07-20T01:19:37;16.20;1.00
9699;DHT22;10089;47.876;8.346;2023-07-20T01:25:26;16.20;1.00
9699;DHT22;10089;47.876;8.346;2023-07-20T01:30:55;16.10;99.90
9699;DHT22;10089;47.876;8.346;2023-07-20T01:33:25;16.10;99.90
9699;DHT22;10089;47.876;8.346;2023-07-20T01:35:58;16.10;99.90
9699;DHT22;10089;47.876;8.346;2023-07-20T01:38:25;16.00;99.90
9699;DHT22;10089;47.876;8.346;2023-07-20T01:40:51;16.00;99.90
9699;DHT22;10089;47.876;8.346;2023-07-20T01:43:17;16.00;99.90
9699;DHT22;10089;47.876;8.346;2023-07-20T01:45:43;16.00;1.00
9699;DHT22;10089;47.876;8.346;2023-07-20T01:48:09;15.90;1.00
9699;DHT22;10089;47.876;8.346;2023-07-20T01:50:35;15.70;1.00
9699;DHT22;10089;47.876;8.346;2023-07-20T01:53:01;15.70;1.00
9699;DHT22;10089;47.876;8.346;2023-07-20T01:55:28;15.60;1.00
9699;DHT22;10089;47.876;8.346;2023-07-20T01:57:55;15.70;1.00
9699;DHT22;10089;47.876;8.346;2023-07-20T02:00:20;15.60;1.00
9699;DHT22;10089;47.876;8.346;2023-07-20T02:02:49;15.60;15.20
9699;DHT22;10089;47.876;8.346;2023-07-20T02:05:15;15.60;77.00
9699;DHT22;10089;47.876;8.346;2023-07-20T02:07:40;15.60;1.00
9699;DHT22;10089;47.876;8.346;2023-07-20T02:10:06;15.50;1.00
9699;DHT22;10089;47.876;8.346;2023-07-20T02:12:32;15.50;99.90
9699;DHT22;10089;47.876;8.346;2023-07-20T02:15:10;15.40;1.00
9699;DHT22;10089;47.876;8.346;2023-07-20T02:17:35;15.40;1.00
9699;DHT22;10089;47.876;8.346;2023-07-20T02:20:01;15.40;32.10
9699;DHT22;10089;47.876;8.346;2023-07-20T02:22:27;15.50;1.00
9699;DHT22;10089;47.876;8.346;2023-07-20T02:24:53;15.40;1.00
9699;DHT22;10089;47.876;8.346;2023-07-20T02:27:18;15.40;1.00
9699;DHT22;10089;47.876;8.346;2023-07-20T02:29:44;15.40;1.00
9699;DHT22;10089;47.876;8.346;2023-07-20T02:32:09;15.20;1.00
9699;DHT22;10089;47.876;8.346;2023-07-20T02:34:36;15.20;1.00
9699;DHT22;10089;47.876;8.346;2023-07-20T02:37:01;15.10;99.90
9699;DHT22;10089;47.876;8.346;2023-07-20T02:39:28;15.10;1.00
9699;DHT22;10089;47.876;8.346;2023-07-20T02:41:54;15.10;74.70
9699;DHT22;10089;47.876;8.346;2023-07-20T02:44:19;15.10;1.00
9699;DHT22;10089;47.876;8.346;2023-07-20T02:46:45;15.10;31.30
9699;DHT22;10089;47.876;8.346;2023-07-20T02:49:11;15.00;1.00
9699;DHT22;10089;47.876;8.346;2023-07-20T02:51:36;14.90;99.90
9699;DHT22;10089;47.876;8.346;2023-07-20T02:54:02;14.90;99.90
9699;DHT22;10089;47.876;8.346;2023-07-20T02:56:28;14.90;1.00
9699;DHT22;10089;47.876;8.346;2023-07-20T02:58:54;14.90;1.00
9699;DHT22;10089;47.876;8.346;2023-07-20T03:01:20;14.80;1.00
9699;DHT22;10089;47.876;8.346;2023-07-20T03:03:45;14.90;1.00
9699;DHT22;10089;47.876;8.346;2023-07-20T03:06:15;14.90;1.00
9699;DHT22;10089;47.876;8.346;2023-07-20T03:08:42;15.00;1.00
9699;DHT22;10089;47.876;8.346;2023-07-20T03:11:16;15.00;99.90
9699;DHT22;10089;47.876;8.346;2023-07-20T03:13:42;14.80;99.90
9699;DHT22;10089;47.876;8.346;2023-07-20T03:16:08;14.70;99.90
9699;DHT22;10089;47.876;8.346;2023-07-20T03:18:37;14.80;21.90
9699;DHT22;10089;47.876;8.346;2023-07-20T03:21:04;14.80;1.00
9699;DHT22;10089;47.876;8.346;2023-07-20T03:23:30;14.70;81.80
9699;DHT22;10089;47.876;8.346;2023-07-20T03:25:56;14.70;99.90
9699;DHT22;10089;47.876;8.346;2023-07-20T03:28:21;14.70;1.00
9699;DHT22;10089;47.876;8.346;2023-07-20T03:30:53;14.60;1.00
9699;DHT22;10089;47.876;8.346;2023-07-20T03:33:19;14.60;1.00
9699;DHT22;10089;47.876;8.346;2023-07-20T03:35:45;14.60;1.00
9699;DHT22;10089;47.876;8.346;2023-07-20T03:38:11;14.50;99.90
9699;DHT22;10089;47.876;8.346;2023-07-20T03:40:36;14.40;99.90
9699;DHT22;10089;47.876;8.346;2023-07-20T03:43:02;14.40;99.90
9699;DHT22;10089;47.876;8.346;2023-07-20T03:45:28;14.40;99.90
9699;DHT22;10089;47.876;8.346;2023-07-20T03:47:54;14.40;99.90
9699;DHT22;10089;47.876;8.346;2023-07-20T03:50:19;14.40;99.90
9699;DHT22;10089;47.876;8.346;2023-07-20T03:52:45;14.40;99.90
9699;DHT22;10089;47.876;8.346;2023-07-20T03:55:10;14.30;1.00
9699;DHT22;10089;47.876;8.346;2023-07-20T03:57:36;14.30;99.90
9699;DHT22;10089;47.876;8.346;2023-07-20T04:00:02;14.20;99.90
9699;DHT22;10089;47.876;8.346;2023-07-20T04:02:32;14.20;99.90
9699;DHT22;10089;47.876;8.346;2023-07-20T04:04:57;14.30;1.00
9699;DHT22;10089;47.876;8.346;2023-07-20T04:07:23;14.40;99.90
9699;DHT22;10089;47.876;8.346;2023-07-20T04:09:48;14.40;99.90
9699;DHT22;10089;47.876;8.346;2023-07-20T04:12:14;14.30;99.90
9699;DHT22;10089;47.876;8.346;2023-07-20T04:14:40;14.30;99.90
9699;DHT22;10089;47.876;8.346;2023-07-20T04:17:05;14.30;1.00
9699;DHT22;10089;47.876;8.346;2023-07-20T04:19:31;14.30;99.90
9699;DHT22;10089;47.876;8.346;2023-07-20T04:21:56;14.20;1.00
9699;DHT22;10089;47.876;8.346;2023-07-20T04:24:22;14.30;1.00
9699;DHT22;10089;47.876;8.346;2023-07-20T04:26:47;14.30;99.90
9699;DHT22;10089;47.876;8.346;2023-07-20T04:29:13;14.20;99.90
9699;DHT22;10089;47.876;8.346;2023-07-20T04:31:38;14.30;1.00
9699;DHT22;10089;47.876;8.346;2023-07-20T04:34:04;14.30;99.90
9699;DHT22;10089;47.876;8.346;2023-07-20T04:36:30;14.40;99.90
9699;DHT22;10089;47.876;8.346;2023-07-20T04:38:55;14.20;99.90
9699;DHT22;10089;47.876;8.346;2023-07-20T04:41:21;14.10;99.90
9699;DHT22;10089;47.876;8.346;2023-07-20T04:43:47;14.30;1.00
9699;DHT22;10089;47.876;8.346;2023-07-20T04:46:13;14.40;1.00
9699;DHT22;10089;47.876;8.346;2023-07-20T04:48:38;14.50;99.90
9699;DHT22;10089;47.876;8.346;2023-07-20T04:51:06;14.30;1.00
9699;DHT22;10089;47.876;8.346;2023-07-20T04:53:31;14.30;1.00
9699;DHT22;10089;47.876;8.346;2023-07-20T04:55:57;14.20;1.00
9699;DHT22;10089;47.876;8.346;2023-07-20T04:58:22;14.20;1.00
9699;DHT22;10089;47.876;8.346;2023-07-20T05:00:50;14.00;1.00
9699;DHT22;10089;47.876;8.346;2023-07-20T05:03:17;14.00;1.00
9699;DHT22;10089;47.876;8.346;2023-07-20T05:05:43;13.80;1.00
9699;DHT22;10089;47.876;8.346;2023-07-20T05:08:10;14.00;1.00
9699;DHT22;10089;47.876;8.346;2023-07-20T05:10:35;14.30;1.00
9699;DHT22;10089;47.876;8.346;2023-07-20T05:13:01;14.60;1.00
9699;DHT22;10089;47.876;8.346;2023-07-20T05:15:27;15.00;1.00
9699;DHT22;10089;47.876;8.346;2023-07-20T05:17:52;15.00;99.90
9699;DHT22;10089;47.876;8.346;2023-07-20T05:20:18;15.40;99.90
9699;DHT22;10089;47.876;8.346;2023-07-20T05:22:44;16.20;1.00
9699;DHT22;10089;47.876;8.346;2023-07-20T05:25:11;16.90;1.00
9699;DHT22;10089;47.876;8.346;2023-07-20T05:27:37;16.50;99.90
9699;DHT22;10089;47.876;8.346;2023-07-20T05:30:04;16.80;1.00
9699;DHT22;10089;47.876;8.346;2023-07-20T05:32:29;16.80;1.00
9699;DHT22;10089;47.876;8.346;2023-07-20T05:34:55;16.70;99.90
9699;DHT22;10089;47.876;8.346;2023-07-20T05:37:21;16.30;1.00
9699;DHT22;10089;47.876;8.346;2023-07-20T05:39:47;16.40;1.00
9699;DHT22;10089;47.876;8.346;2023-07-20T05:42:12;16.50;13.90
9699;DHT22;10089;47.876;8.346;2023-07-20T05:44:39;16.30;99.90
9699;DHT22;10089;47.876;8.346;2023-07-20T05:47:05;16.90;99.90
9699;DHT22;10089;47.876;8.346;2023-07-20T05:49:30;16.90;1.00
9699;DHT22;10089;47.876;8.346;2023-07-20T05:51:56;17.00;1.00
9699;DHT22;10089;47.876;8.346;2023-07-20T05:54:25;16.80;1.00
9699;DHT22;10089;47.876;8.346;2023-07-20T05:56:51;16.90;99.90
9699;DHT22;10089;47.876;8.346;2023-07-20T05:59:16;16.90;1.00
9699;DHT22;10089;47.876;8.346;2023-07-20T06:01:43;16.50;28.80
9699;DHT22;10089;47.876;8.346;2023-07-20T06:04:09;16.90;1.00
9699;DHT22;10089;47.876;8.346;2023-07-20T06:06:35;16.90;1.00
9699;DHT22;10089;47.876;8.346;2023-07-20T06:09:01;18.00;1.00
9699;DHT22;10089;47.876;8.346;2023-07-20T06:11:30;17.90;1.00
9699;DHT22;10089;47.876;8.346;2023-07-20T06:13:56;19.20;1.00
9699;DHT22;10089;47.876;8.346;2023-07-20T06:16:22;19.70;1.00
9699;DHT22;10089;47.876;8.346;2023-07-20T06:18:48;19.60;1.00
9699;DHT22;10089;47.876;8.346;2023-07-20T06:21:17;20.70;99.90
9699;DHT22;10089;47.876;8.346;2023-07-20T06:23:42;21.00;1.00
9699;DHT22;10089;47.876;8.346;2023-07-20T06:26:08;20.00;1.00
9699;DHT22;10089;47.876;8.346;2023-07-20T06:28:33;20.40;1.00
9699;DHT22;10089;47.876;8.346;2023-07-20T06:31:00;21.10;1.00
9699;DHT22;10089;47.876;8.346;2023-07-20T06:33:26;21.20;1.00
9699;DHT22;10089;47.876;8.346;2023-07-20T06:35:52;21.20;1.00
9699;DHT22;10089;47.876;8.346;2023-07-20T06:38:18;21.70;1.00
9699;DHT22;10089;47.876;8.346;2023-07-20T06:40:46;21.60;1.00
9699;DHT22;10089;47.876;8.346;2023-07-20T06:43:12;21.80;99.90
9699;DHT22;10089;47.876;8.346;2023-07-20T06:45:37;21.60;99.90
9699;DHT22;10089;47.876;8.346;2023-07-20T06:48:03;21.90;99.90
9699;DHT22;10089;47.876;8.346;2023-07-20T06:50:29;22.10;99.90
9699;DHT22;10089;47.876;8.346;2023-07-20T06:52:54;22.10;99.90
9699;DHT22;10089;47.876;8.346;2023-07-20T06:55:20;21.90;99.90
9699;DHT22;10089;47.876;8.346;2023-07-20T06:57:46;21.70;99.90
9699;DHT22;10089;47.876;8.346;2023-07-20T07:00:12;21.00;99.90
9699;DHT22;10089;47.876;8.346;2023-07-20T07:02:38;20.80;99.90
9699;DHT22;10089;47.876;8.346;2023-07-20T07:05:04;21.10;99.90
9699;DHT22;10089;47.876;8.346;2023-07-20T07:07:30;20.90;99.90
9699;DHT22;10089;47.876;8.346;2023-07-20T07:09:56;20.70;99.90
9699;DHT22;10089;47.876;8.346;2023-07-20T07:12:22;20.70;99.90
9699;DHT22;10089;47.876;8.346;2023-07-20T07:14:47;20.50;99.90
9699;DHT22;10089;47.876;8.346;2023-07-20T07:17:13;20.30;99.90
9699;DHT22;10089;47.876;8.346;2023-07-20T07:19:38;20.20;99.90
9699;DHT22;10089;47.876;8.346;2023-07-20T07:22:04;20.50;99.90
9699;DHT22;10089;47.876;8.346;2023-07-20T07:24:30;20.60;99.90
9699;DHT22;10089;47.876;8.346;2023-07-20T07:26:59;21.00;99.90
9699;DHT22;10089;47.876;8.346;2023-07-20T07:29:25;21.10;99.90
9699;DHT22;10089;47.876;8.346;2023-07-20T07:31:51;21.40;99.90
9699;DHT22;10089;47.876;8.346;2023-07-20T07:34:17;21.30;99.90
9699;DHT22;10089;47.876;8.346;2023-07-20T07:36:43;21.30;99.90
9699;DHT22;10089;47.876;8.346;2023-07-20T07:39:09;21.40;99.90
9699;DHT22;10089;47.876;8.346;2023-07-20T07:41:35;21.50;99.90
9699;DHT22;10089;47.876;8.346;2023-07-20T07:44:00;21.70;99.90
9699;DHT22;10089;47.876;8.346;2023-07-20T07:46:26;21.20;99.90
9699;DHT22;10089;47.876;8.346;2023-07-20T07:48:52;20.80;99.90
9699;DHT22;10089;47.876;8.346;2023-07-20T07:51:18;20.70;99.90
9699;DHT22;10089;47.876;8.346;2023-07-20T07:53:45;20.50;99.90
9699;DHT22;10089;47.876;8.346;2023-07-20T07:56:11;20.40;99.90
9699;DHT22;10089;47.876;8.346;2023-07-20T07:58:37;20.20;99.90
9699;DHT22;10089;47.876;8.346;2023-07-20T08:01:03;20.20;99.90
9699;DHT22;10089;47.876;8.346;2023-07-20T08:03:28;19.60;99.90
9699;DHT22;10089;47.876;8.346;2023-07-20T08:05:54;19.90;99.90
9699;DHT22;10089;47.876;8.346;2023-07-20T08:08:25;19.50;99.90
9699;DHT22;10089;47.876;8.346;2023-07-20T08:10:53;19.80;99.90
9699;DHT22;10089;47.876;8.346;2023-07-20T08:13:19;20.10;99.90
9699;DHT22;10089;47.876;8.346;2023-07-20T08:15:49;20.70;99.90
9699;DHT22;10089;47.876;8.346;2023-07-20T08:18:16;21.00;99.90
9699;DHT22;10089;47.876;8.346;2023-07-20T08:20:44;21.50;99.90
9699;DHT22;10089;47.876;8.346;2023-07-20T08:23:10;20.90;99.90
9699;DHT22;10089;47.876;8.346;2023-07-20T08:25:36;21.60;99.90
9699;DHT22;10089;47.876;8.346;2023-07-20T08:28:05;21.30;99.90
9699;DHT22;10089;47.876;8.346;2023-07-20T08:30:43;21.00;99.90
9699;DHT22;10089;47.876;8.346;2023-07-20T08:33:19;21.20;99.90
9699;DHT22;10089;47.876;8.346;2023-07-20T08:35:45;21.50;99.90
9699;DHT22;10089;47.876;8.346;2023-07-20T08:38:11;21.80;99.90
9699;DHT22;10089;47.876;8.346;2023-07-20T08:40:45;22.00;99.90
9699;DHT22;10089;47.876;8.346;2023-07-20T08:43:11;22.40;99.90
9699;DHT22;10089;47.876;8.346;2023-07-20T08:45:39;23.00;99.90
9699;DHT22;10089;47.876;8.346;2023-07-20T08:48:06;22.90;99.90
9699;DHT22;10089;47.876;8.346;2023-07-20T08:50:41;23.00;99.90
9699;DHT22;10089;47.876;8.346;2023-07-20T08:53:08;23.40;99.90
9699;DHT22;10089;47.876;8.346;2023-07-20T08:55:35;23.10;99.90
9699;DHT22;10089;47.876;8.346;2023-07-20T08:58:02;22.60;99.90
9699;DHT22;10089;47.876;8.346;2023-07-20T09:00:28;21.80;99.90
9699;DHT22;10089;47.876;8.346;2023-07-20T09:02:55;21.70;99.90
9699;DHT22;10089;47.876;8.346;2023-07-20T09:05:22;21.70;99.90
9699;DHT22;10089;47.876;8.346;2023-07-20T09:07:49;21.60;99.90
9699;DHT22;10089;47.876;8.346;2023-07-20T09:10:15;21.60;99.90
9699;DHT22;10089;47.876;8.346;2023-07-20T09:12:42;21.80;99.90
9699;DHT22;10089;47.876;8.346;2023-07-20T09:15:09;21.60;99.90
9699;DHT22;10089;47.876;8.346;2023-07-20T09:17:35;21.50;99.90
9699;DHT22;10089;47.876;8.346;2023-07-20T09:20:08;22.00;99.90
9699;DHT22;10089;47.876;8.346;2023-07-20T09:22:39;21.80;99.90
9699;DHT22;10089;47.876;8.346;2023-07-20T09:25:15;21.00;99.90
9699;DHT22;10089;47.876;8.346;2023-07-20T09:27:42;21.30;99.90
9699;DHT22;10089;47.876;8.346;2023-07-20T09:30:09;22.20;99.90
9699;DHT22;10089;47.876;8.346;2023-07-20T09:32:44;22.90;99.90
9699;DHT22;10089;47.876;8.346;2023-07-20T09:35:29;23.30;99.90
9699;DHT22;10089;47.876;8.346;2023-07-20T09:38:01;23.40;99.90
9699;DHT22;10089;47.876;8.346;2023-07-20T09:40:28;23.60;99.90
9699;DHT22;10089;47.876;8.346;2023-07-20T09:42:54;23.50;99.90
9699;DHT22;10089;47.876;8.346;2023-07-20T09:45:39;23.30;99.90
9699;DHT22;10089;47.876;8.346;2023-07-20T09:48:05;23.70;99.90
9699;DHT22;10089;47.876;8.346;2023-07-20T09:50:33;24.20;99.90
9699;DHT22;10089;47.876;8.346;2023-07-20T09:52:58;23.70;99.90
9699;DHT22;10089;47.876;8.346;2023-07-20T09:55:26;23.70;99.90
9699;DHT22;10089;47.876;8.346;2023-07-20T09:57:52;23.70;99.90
9699;DHT22;10089;47.876;8.346;2023-07-20T10:00:19;23.30;99.90
9699;DHT22;10089;47.876;8.346;2023-07-20T10:02:45;23.30;99.90
9699;DHT22;10089;47.876;8.346;2023-07-20T10:05:15;22.40;99.90
9699;DHT22;10089;47.876;8.346;2023-07-20T10:07:47;22.70;99.90
9699;DHT22;10089;47.876;8.346;2023-07-20T10:10:18;23.20;99.90
9699;DHT22;10089;47.876;8.346;2023-07-20T10:12:48;23.50;99.90
9699;DHT22;10089;47.876;8.346;2023-07-20T10:15:24;23.80;99.90
9699;DHT22;10089;47.876;8.346;2023-07-20T10:18:07;24.60;99.90
9699;DHT22;10089;47.876;8.346;2023-07-20T10:20:36;24.10;99.90
9699;DHT22;10089;47.876;8.346;2023-07-20T10:23:04;24.80;99.90
9699;DHT22;10089;47.876;8.346;2023-07-20T10:25:31;24.60;99.90
9699;DHT22;10089;47.876;8.346;2023-07-20T10:27:58;24.60;99.90
9699;DHT22;10089;47.876;8.346;2023-07-20T10:30:25;24.10;99.90
9699;DHT22;10089;47.876;8.346;2023-07-20T10:32:52;24.20;99.90
9699;DHT22;10089;47.876;8.346;2023-07-20T10:35:18;24.90;99.90
9699;DHT22;10089;47.876;8.346;2023-07-20T10:37:52;25.20;99.90
9699;DHT22;10089;47.876;8.346;2023-07-20T10:42:50;25.70;99.90
9699;DHT22;10089;47.876;8.346;2023-07-20T10:45:17;25.80;94.60
9699;DHT22;10089;47.876;8.346;2023-07-20T10:47:46;25.10;99.90
9699;DHT22;10089;47.876;8.346;2023-07-20T10:50:12;24.70;96.50
9699;DHT22;10089;47.876;8.346;2023-07-20T10:52:41;25.10;99.10
9699;DHT22;10089;47.876;8.346;2023-07-20T10:55:16;24.60;99.70
9699;DHT22;10089;47.876;8.346;2023-07-20T10:57:42;25.30;99.00
9699;DHT22;10089;47.876;8.346;2023-07-20T11:00:10;25.60;99.10
9699;DHT22;10089;47.876;8.346;2023-07-20T11:02:47;25.80;95.30
9699;DHT22;10089;47.876;8.346;2023-07-20T11:05:38;25.80;93.20
9699;DHT22;10089;47.876;8.346;2023-07-20T11:08:06;25.80;92.40
9699;DHT22;10089;47.876;8.346;2023-07-20T11:10:32;26.30;76.10
9699;DHT22;10089;47.876;8.346;2023-07-20T11:16:05;25.90;54.80
9699;DHT22;10089;47.876;8.346;2023-07-20T11:18:33;25.40;66.00
9699;DHT22;10089;47.876;8.346;2023-07-20T11:21:00;25.60;63.20
9699;DHT22;10089;47.876;8.346;2023-07-20T11:23:26;26.00;67.90
9699;DHT22;10089;47.876;8.346;2023-07-20T11:25:51;25.50;56.50
9699;DHT22;10089;47.876;8.346;2023-07-20T11:28:17;25.40;58.90
9699;DHT22;10089;47.876;8.346;2023-07-20T11:30:42;25.80;62.40
9699;DHT22;10089;47.876;8.346;2023-07-20T11:33:08;26.10;74.60
9699;DHT22;10089;47.876;8.346;2023-07-20T11:35:44;26.40;48.40
9699;DHT22;10089;47.876;8.346;2023-07-20T11:38:12;26.30;50.00
9699;DHT22;10089;47.876;8.346;2023-07-20T11:40:45;26.10;50.90
9699;DHT22;10089;47.876;8.346;2023-07-20T11:43:12;26.20;44.70
9699;DHT22;10089;47.876;8.346;2023-07-20T11:45:39;25.80;37.80
9699;DHT22;10089;47.876;8.346;2023-07-20T11:48:05;25.30;39.60
9699;DHT22;10089;47.876;8.346;2023-07-20T11:50:31;25.00;53.80
9699;DHT22;10089;47.876;8.346;2023-07-20T11:52:57;24.50;40.40
9699;DHT22;10089;47.876;8.346;2023-07-20T11:55:23;24.10;44.70
9699;DHT22;10089;47.876;8.346;2023-07-20T11:58:05;23.90;36.40
9699;DHT22;10089;47.876;8.346;2023-07-20T12:00:32;24.20;49.00
9699;DHT22;10089;47.876;8.346;2023-07-20T12:02:58;25.00;54.60
9699;DHT22;10089;47.876;8.346;2023-07-20T12:05:24;25.50;40.50
9699;DHT22;10089;47.876;8.346;2023-07-20T12:07:51;25.50;51.00
9699;DHT22;10089;47.876;8.346;2023-07-20T12:10:27;25.20;47.80
9699;DHT22;10089;47.876;8.346;2023-07-20T12:12:54;24.80;43.20
9699;DHT22;10089;47.876;8.346;2023-07-20T12:15:21;24.70;67.60
9699;DHT22;10089;47.876;8.346;2023-07-20T12:17:50;24.50;40.60
9699;DHT22;10089;47.876;8.346;2023-07-20T12:20:33;24.20;36.00
9699;DHT22;10089;47.876;8.346;2023-07-20T12:23:05;24.00;42.40
9699;DHT22;10089;47.876;8.346;2023-07-20T12:25:44;24.10;48.40
9699;DHT22;10089;47.876;8.346;2023-07-20T12:28:12;24.10;42.70
9699;DHT22;10089;47.876;8.346;2023-07-20T12:30:40;24.30;46.40
9699;DHT22;10089;47.876;8.346;2023-07-20T12:33:06;24.60;31.70
9699;DHT22;10089;47.876;8.346;2023-07-20T12:35:32;25.00;37.80
9699;DHT22;10089;47.876;8.346;2023-07-20T12:37:58;25.10;35.20
9699;DHT22;10089;47.876;8.346;2023-07-20T12:40:24;25.10;27.20
9699;DHT22;10089;47.876;8.346;2023-07-20T12:42:49;25.10;25.60
9699;DHT22;10089;47.876;8.346;2023-07-20T12:45:15;25.10;36.50
9699;DHT22;10089;47.876;8.346;2023-07-20T12:47:41;25.00;21.50
9699;DHT22;10089;47.876;8.346;2023-07-20T12:50:09;25.30;21.50
9699;DHT22;10089;47.876;8.346;2023-07-20T12:52:39;25.30;22.90
9699;DHT22;10089;47.876;8.346;2023-07-20T12:55:07;25.50;22.40
9699;DHT22;10089;47.876;8.346;2023-07-20T12:57:34;25.50;19.70
9699;DHT22;10089;47.876;8.346;2023-07-20T13:00:00;25.90;20.40
9699;DHT22;10089;47.876;8.346;2023-07-20T13:02:27;26.10;17.30
9699;DHT22;10089;47.876;8.346;2023-07-20T13:04:52;25.70;4.90
9699;DHT22;10089;47.876;8.346;2023-07-20T13:07:33;25.50;12.20
9699;DHT22;10089;47.876;8.346;2023-07-20T13:10:00;25.70;13.80
9699;DHT22;10089;47.876;8.346;2023-07-20T13:12:27;25.60;6.30
9699;DHT22;10089;47.876;8.346;2023-07-20T13:14:53;25.40;7.20
9699;DHT22;10089;47.876;8.346;2023-07-20T13:17:19;25.60;7.60
9699;DHT22;10089;47.876;8.346;2023-07-20T13:19:44;25.40;6.30
9699;DHT22;10089;47.876;8.346;2023-07-20T13:22:10;25.80;11.60
9699;DHT22;10089;47.876;8.346;2023-07-20T13:24:36;25.90;1.00
9699;DHT22;10089;47.876;8.346;2023-07-20T13:27:02;25.80;1.90
9699;DHT22;10089;47.876;8.346;2023-07-20T13:29:28;25.80;1.60
9699;DHT22;10089;47.876;8.346;2023-07-20T13:31:53;25.80;1.30
9699;DHT22;10089;47.876;8.346;2023-07-20T13:34:19;25.80;1.00
9699;DHT22;10089;47.876;8.346;2023-07-20T13:36:44;25.70;1.00
9699;DHT22;10089;47.876;8.346;2023-07-20T13:39:10;25.50;3.70
9699;DHT22;10089;47.876;8.346;2023-07-20T13:41:35;25.70;3.90
9699;DHT22;10089;47.876;8.346;2023-07-20T13:44:01;25.70;1.00
9699;DHT22;10089;47.876;8.346;2023-07-20T13:46:27;25.60;1.00
9699;DHT22;10089;47.876;8.346;2023-07-20T13:48:52;25.60;1.00
9699;DHT22;10089;47.876;8.346;2023-07-20T13:51:18;25.80;1.00
9699;DHT22;10089;47.876;8.346;2023-07-20T13:53:46;25.70;1.90
9699;DHT22;10089;47.876;8.346;2023-07-20T13:56:11;25.80;1.00
9699;DHT22;10089;47.876;8.346;2023-07-20T13:58:37;25.70;1.00
9699;DHT22;10089;47.876;8.346;2023-07-20T14:01:02;25.50;1.00
9699;DHT22;10089;47.876;8.346;2023-07-20T14:03:28;25.50;1.00
9699;DHT22;10089;47.876;8.346;2023-07-20T14:05:54;25.30;1.00
9699;DHT22;10089;47.876;8.346;2023-07-20T14:08:20;25.10;1.00
9699;DHT22;10089;47.876;8.346;2023-07-20T14:10:46;25.40;1.00
9699;DHT22;10089;47.876;8.346;2023-07-20T14:13:11;25.50;1.00
9699;DHT22;10089;47.876;8.346;2023-07-20T14:15:39;25.50;1.00
9699;DHT22;10089;47.876;8.346;2023-07-20T14:18:04;25.40;1.00
9699;DHT22;10089;47.876;8.346;2023-07-20T14:20:30;25.20;1.00
9699;DHT22;10089;47.876;8.346;2023-07-20T14:22:55;25.10;1.00
9699;DHT22;10089;47.876;8.346;2023-07-20T14:25:21;25.20;1.00
9699;DHT22;10089;47.876;8.346;2023-07-20T14:27:47;25.00;1.00
9699;DHT22;10089;47.876;8.346;2023-07-20T14:30:13;24.90;1.00
9699;DHT22;10089;47.876;8.346;2023-07-20T14:32:39;25.00;1.00
9699;DHT22;10089;47.876;8.346;2023-07-20T14:35:04;25.00;1.00
9699;DHT22;10089;47.876;8.346;2023-07-20T14:37:31;25.00;1.00
9699;DHT22;10089;47.876;8.346;2023-07-20T14:39:57;25.00;1.00
9699;DHT22;10089;47.876;8.346;2023-07-20T14:42:22;24.90;1.00
9699;DHT22;10089;47.876;8.346;2023-07-20T14:44:48;24.90;1.00
9699;DHT22;10089;47.876;8.346;2023-07-20T14:47:14;25.00;1.00
9699;DHT22;10089;47.876;8.346;2023-07-20T14:49:39;25.10;1.00
9699;DHT22;10089;47.876;8.346;2023-07-20T14:52:05;25.20;1.00
9699;DHT22;10089;47.876;8.346;2023-07-20T14:54:31;25.00;1.00
9699;DHT22;10089;47.876;8.346;2023-07-20T14:56:56;24.90;1.00
9699;DHT22;10089;47.876;8.346;2023-07-20T14:59:22;24.80;1.00
9699;DHT22;10089;47.876;8.346;2023-07-20T15:01:48;24.80;1.00
9699;DHT22;10089;47.876;8.346;2023-07-20T15:04:14;24.70;1.00
9699;DHT22;10089;47.876;8.346;2023-07-20T15:06:40;24.60;1.00
9699;DHT22;10089;47.876;8.346;2023-07-20T15:09:06;24.60;1.00
9699;DHT22;10089;47.876;8.346;2023-07-20T15:11:33;24.50;1.00
9699;DHT22;10089;47.876;8.346;2023-07-20T15:13:59;24.40;1.00
9699;DHT22;10089;47.876;8.346;2023-07-20T15:16:24;24.20;1.00
9699;DHT22;10089;47.876;8.346;2023-07-20T15:18:50;24.50;1.00
9699;DHT22;10089;47.876;8.346;2023-07-20T15:21:16;24.70;1.00
9699;DHT22;10089;47.876;8.346;2023-07-20T15:23:43;24.80;1.00
9699;DHT22;10089;47.876;8.346;2023-07-20T15:26:08;24.70;1.00
9699;DHT22;10089;47.876;8.346;2023-07-20T15:28:36;24.70;1.00
9699;DHT22;10089;47.876;8.346;2023-07-20T15:31:03;24.50;1.00
9699;DHT22;10089;47.876;8.346;2023-07-20T15:33:29;24.30;1.00
9699;DHT22;10089;47.876;8.346;2023-07-20T15:35:55;24.40;1.00
9699;DHT22;10089;47.876;8.346;2023-07-20T15:38:21;24.40;1.00
9699;DHT22;10089;47.876;8.346;2023-07-20T15:40:47;24.20;1.00
9699;DHT22;10089;47.876;8.346;2023-07-20T15:43:14;24.30;1.00
9699;DHT22;10089;47.876;8.346;2023-07-20T15:45:40;24.20;1.00
9699;DHT22;10089;47.876;8.346;2023-07-20T15:48:06;24.10;1.00
9699;DHT22;10089;47.876;8.346;2023-07-20T15:50:31;24.20;1.00
9699;DHT22;10089;47.876;8.346;2023-07-20T15:52:57;24.20;1.00
9699;DHT22;10089;47.876;8.346;2023-07-20T15:55:22;24.20;1.00
9699;DHT22;10089;47.876;8.346;2023-07-20T15:57:48;24.00;1.00
9699;DHT22;10089;47.876;8.346;2023-07-20T16:00:14;23.90;1.00
9699;DHT22;10089;47.876;8.346;2023-07-20T16:02:40;24.10;1.00